createdAt,value
2022-10-28T00:01:35.065Z,57.48
2022-10-28T00:04:04.151Z,57.83
2022-10-28T00:06:35.555Z,57.84
2022-10-28T00:09:06.987Z,57.22
2022-10-28T00:11:38.574Z,57.36
2022-10-28T00:14:08.558Z,57.70
2022-10-28T00:16:38.765Z,57.51
2022-10-28T00:19:09.288Z,58.03
2022-10-28T00:21:39.620Z,57.63
2022-10-28T00:24:10.329Z,57.94
2022-10-28T00:26:42.811Z,57.64
2022-10-28T00:29:15.264Z,57.87
2022-10-28T00:31:44.483Z,57.47
2022-10-28T00:34:16.882Z,57.03
2022-10-28T00:36:47.624Z,57.44
2022-10-28T00:39:16.495Z,56.90
2022-10-28T00:41:48.288Z,56.71
2022-10-28T00:44:48.977Z,57.31
2022-10-28T00:47:29.763Z,56.05
2022-10-28T00:50:24.608Z,55.62
2022-10-28T00:53:00.200Z,55.88
2022-10-28T00:55:29.808Z,55.73
2022-10-28T00:58:01.541Z,56.17
2022-10-28T01:00:31.819Z,55.50
2022-10-28T01:03:00.945Z,54.61
2022-10-28T01:05:33.424Z,54.59
2022-10-28T01:08:04.739Z,54.76
2022-10-28T01:11:07.335Z,54.21
2022-10-28T01:13:38.807Z,54.14
2022-10-28T01:16:32.908Z,53.97
2022-10-28T01:19:25.962Z,54.51
2022-10-28T01:22:16.274Z,54.36
2022-10-28T01:25:03.426Z,54.40
2022-10-28T01:28:03.531Z,54.06
2022-10-28T01:31:14.009Z,54.34
2022-10-28T01:34:06.558Z,53.75
2022-10-28T01:36:59.018Z,53.81
2022-10-28T01:39:50.429Z,53.67
2022-10-28T01:43:03.628Z,53.37
2022-10-28T01:45:44.617Z,53.10
2022-10-28T01:48:22.757Z,53.06
2022-10-28T01:51:19.647Z,52.22
2022-10-28T01:53:51.862Z,52.06
2022-10-28T01:56:30.019Z,52.31
2022-10-28T01:59:01.662Z,51.86
2022-10-28T02:01:32.766Z,51.94
2022-10-28T02:04:03.265Z,51.59
2022-10-28T02:06:35.329Z,51.79
2022-10-28T02:09:04.279Z,51.76
2022-10-28T02:11:46.863Z,51.60
2022-10-28T02:14:54.455Z,51.80
2022-10-28T02:17:29.285Z,51.63
2022-10-28T02:20:28.145Z,51.32
2022-10-28T02:23:19.950Z,51.28
2022-10-28T02:26:03.037Z,50.32
2022-10-28T02:28:57.273Z,49.86
2022-10-28T02:31:31.381Z,50.55
2022-10-28T02:34:09.795Z,50.49
2022-10-28T02:36:43.559Z,50.26
2022-10-28T02:39:12.805Z,50.47
2022-10-28T02:41:56.799Z,50.40
2022-10-28T02:44:32.032Z,49.96
2022-10-28T02:47:07.722Z,50.12
2022-10-28T02:49:40.618Z,49.97
2022-10-28T02:52:10.749Z,49.66
2022-10-28T02:54:59.165Z,49.61
2022-10-28T02:57:34.960Z,49.16
2022-10-28T03:00:09.706Z,49.01
2022-10-28T03:02:39.300Z,49.26
2022-10-28T03:05:09.078Z,49.03
2022-10-28T03:07:37.858Z,48.27
2022-10-28T03:10:07.317Z,47.49
2022-10-28T03:12:36.643Z,46.72
2022-10-28T03:15:05.953Z,46.21
2022-10-28T03:17:34.805Z,45.88
2022-10-28T03:20:03.697Z,45.12
2022-10-28T03:22:32.601Z,44.04
2022-10-28T03:25:01.385Z,43.59
2022-10-28T03:27:33.688Z,43.37
2022-10-28T03:30:02.628Z,42.78
2022-10-28T03:32:32.687Z,42.78
2022-10-28T03:35:01.458Z,42.10
2022-10-28T03:37:32.361Z,41.88
2022-10-28T03:40:03.096Z,41.80
2022-10-28T03:42:35.414Z,41.52
2022-10-28T03:49:33.993Z,36.78
2022-10-28T03:52:02.584Z,36.42
2022-10-28T03:54:31.279Z,35.06
2022-10-28T03:56:59.906Z,35.45
2022-10-28T03:59:28.650Z,35.08
2022-10-28T04:01:57.596Z,33.23
2022-10-28T04:04:29.852Z,32.40
2022-10-28T04:06:59.572Z,31.56
2022-10-28T04:09:28.127Z,30.88
2022-10-28T04:11:56.780Z,31.21
2022-10-28T04:14:25.474Z,31.49
2022-10-28T04:16:54.210Z,31.22
2022-10-28T04:19:22.825Z,29.54
2022-10-28T04:21:51.478Z,29.99
2022-10-28T04:24:20.130Z,28.87
2022-10-28T04:26:48.809Z,28.71
2022-10-28T04:29:17.596Z,28.26
2022-10-28T04:31:48.671Z,28.67
2022-10-28T04:34:20.239Z,28.56
2022-10-28T04:36:48.840Z,28.55
2022-10-28T04:39:18.070Z,28.14
2022-10-28T04:41:46.997Z,27.77
2022-10-28T04:44:15.754Z,27.26
2022-10-28T04:46:44.445Z,27.01
2022-10-28T04:49:13.094Z,26.52
2022-10-28T04:51:41.849Z,26.27
2022-10-28T04:54:10.479Z,26.15
2022-10-28T04:56:39.108Z,25.86
2022-10-28T04:59:07.731Z,26.17
2022-10-28T05:01:37.816Z,25.70
2022-10-28T05:04:06.778Z,24.97
2022-10-28T05:06:35.462Z,24.36
2022-10-28T05:09:04.430Z,24.44
2022-10-28T05:11:33.213Z,24.78
2022-10-28T05:14:01.875Z,24.85
2022-10-28T05:16:30.546Z,24.81
2022-10-28T05:18:59.416Z,24.78
2022-10-28T05:21:28.260Z,24.72
2022-10-28T05:23:56.910Z,24.46
2022-10-28T05:26:26.026Z,24.09
2022-10-28T05:28:54.632Z,24.15
2022-10-28T05:31:23.242Z,24.23
2022-10-28T05:33:51.896Z,24.57
2022-10-28T05:36:20.587Z,24.42
2022-10-28T05:38:50.196Z,23.71
2022-10-28T05:41:18.792Z,22.77
2022-10-28T05:43:47.378Z,22.48
2022-10-28T05:46:15.983Z,21.40
2022-10-28T05:48:44.690Z,21.74
2022-10-28T05:51:13.283Z,22.39
2022-10-28T05:53:44.996Z,22.10
2022-10-28T05:56:13.744Z,21.75
2022-10-28T05:58:42.525Z,21.45
2022-10-28T06:01:11.811Z,22.04
2022-10-28T06:03:40.954Z,21.69
2022-10-28T06:06:09.640Z,21.82
2022-10-28T06:08:38.457Z,21.63
2022-10-28T06:11:05.660Z,21.14
2022-10-28T06:13:34.277Z,21.22
2022-10-28T06:16:03.101Z,20.97
2022-10-28T06:18:32.221Z,21.46
2022-10-28T06:21:01.001Z,21.14
2022-10-28T06:23:29.851Z,21.58
2022-10-28T06:26:00.873Z,21.52
2022-10-28T06:28:30.517Z,21.78
2022-10-28T06:31:04.336Z,22.29
2022-10-28T06:33:33.439Z,22.19
2022-10-28T06:36:02.567Z,21.81
2022-10-28T06:38:31.286Z,21.00
2022-10-28T06:40:59.919Z,20.93
2022-10-28T06:43:28.680Z,20.69
2022-10-28T06:46:01.671Z,19.76
2022-10-28T06:48:32.435Z,20.11
2022-10-28T06:51:01.150Z,19.71
2022-10-28T06:53:29.870Z,19.64
2022-10-28T06:55:59.096Z,20.05
2022-10-28T06:58:28.558Z,20.49
2022-10-28T07:00:57.529Z,21.03
2022-10-28T07:03:26.480Z,21.35
2022-10-28T07:05:55.944Z,21.47
2022-10-28T07:08:24.617Z,22.36
2022-10-28T07:10:57.775Z,22.75
2022-10-28T07:13:27.597Z,22.90
2022-10-28T07:15:57.976Z,23.34
2022-10-28T07:18:28.858Z,24.49
2022-10-28T07:21:02.112Z,25.42
2022-10-28T07:23:34.751Z,26.05
2022-10-28T07:26:03.372Z,26.90
2022-10-28T07:28:32.600Z,27.64
2022-10-28T07:31:03.075Z,28.07
2022-10-28T07:33:31.931Z,29.10
2022-10-28T07:36:03.153Z,29.82
2022-10-28T07:38:32.227Z,29.41
2022-10-28T07:41:05.873Z,27.86
2022-10-28T07:43:40.819Z,26.05
2022-10-28T07:46:10.197Z,25.18
2022-10-28T07:48:39.027Z,24.72
2022-10-28T07:51:09.684Z,24.60
2022-10-28T07:53:39.394Z,24.59
2022-10-28T07:56:10.887Z,24.47
2022-10-28T07:58:40.034Z,24.88
2022-10-28T08:01:10.894Z,24.69
2022-10-28T08:03:39.626Z,24.63
2022-10-28T08:06:17.825Z,24.38
2022-10-28T08:08:48.773Z,24.17
2022-10-28T08:11:19.624Z,24.26
2022-10-28T08:13:48.676Z,24.18
2022-10-28T08:16:17.522Z,24.38
2022-10-28T08:18:46.666Z,24.73
2022-10-28T08:21:16.243Z,24.53
2022-10-28T08:23:47.814Z,24.92
2022-10-28T08:26:17.252Z,26.24
2022-10-28T08:28:45.976Z,27.36
2022-10-28T08:31:14.618Z,28.33
2022-10-28T08:33:45.878Z,28.43
2022-10-28T08:36:16.856Z,28.60
2022-10-28T08:38:47.468Z,29.06
2022-10-28T08:41:31.231Z,28.67
2022-10-28T08:44:31.521Z,28.49
2022-10-28T08:47:27.664Z,28.70
2022-10-28T08:50:03.248Z,29.83
2022-10-28T08:53:04.066Z,30.65
2022-10-28T08:55:46.354Z,31.43
2022-10-28T08:58:31.593Z,32.62
2022-10-28T09:01:00.917Z,33.68
2022-10-28T09:03:39.156Z,33.18
2022-10-28T09:06:10.130Z,34.59
2022-10-28T09:08:42.866Z,35.12
2022-10-28T09:11:11.482Z,35.52
2022-10-28T09:14:07.902Z,35.52
2022-10-28T09:17:07.578Z,35.65
2022-10-28T09:19:50.479Z,36.13
2022-10-28T09:22:37.237Z,36.13
2022-10-28T09:25:10.535Z,36.53
2022-10-28T09:27:54.093Z,36.89
2022-10-28T09:30:32.471Z,37.67
2022-10-28T09:33:26.012Z,38.06
2022-10-28T09:35:57.115Z,37.66
2022-10-28T09:38:33.958Z,38.65
2022-10-28T09:41:08.381Z,38.10
2022-10-28T09:43:43.645Z,37.95
2022-10-28T09:46:17.076Z,38.12
2022-10-28T09:48:51.825Z,38.64
2022-10-28T09:51:55.990Z,38.76
2022-10-28T09:54:35.607Z,38.97
2022-10-28T09:57:05.786Z,38.81
2022-10-28T09:59:35.348Z,38.76
2022-10-28T10:02:05.549Z,38.50
2022-10-28T10:04:36.237Z,38.81
2022-10-28T10:07:09.129Z,39.74
2022-10-28T10:09:39.725Z,39.29
2022-10-28T10:12:13.358Z,39.04
2022-10-28T10:14:49.926Z,38.99
2022-10-28T10:17:45.637Z,39.54
2022-10-28T10:20:19.716Z,38.81
2022-10-28T10:22:50.164Z,39.03
2022-10-28T10:25:19.183Z,39.07
2022-10-28T10:28:05.552Z,39.27
2022-10-28T10:30:46.994Z,39.58
2022-10-28T10:33:31.974Z,39.69
2022-10-28T10:36:16.352Z,39.54
2022-10-28T10:38:54.536Z,39.37
2022-10-28T10:41:43.738Z,39.86
2022-10-28T10:44:36.233Z,39.59
2022-10-28T10:47:06.239Z,39.85
2022-10-28T10:49:36.456Z,39.71
2022-10-28T10:52:08.500Z,40.00
2022-10-28T10:54:38.829Z,40.06
2022-10-28T10:57:21.445Z,39.96
2022-10-28T10:59:54.133Z,39.67
2022-10-28T11:02:32.320Z,39.52
2022-10-28T11:05:07.640Z,39.35
2022-10-28T11:07:39.332Z,39.31
2022-10-28T11:10:19.863Z,39.52
2022-10-28T11:13:00.453Z,39.57
2022-10-28T11:15:31.450Z,39.15
2022-10-28T11:18:17.454Z,39.46
2022-10-28T11:21:00.684Z,39.25
2022-10-28T11:23:32.299Z,39.23
2022-10-28T11:26:06.522Z,39.25
2022-10-28T11:28:47.008Z,39.14
2022-10-28T11:31:39.071Z,39.34
2022-10-28T11:34:28.797Z,39.11
2022-10-28T11:37:26.320Z,39.28
2022-10-28T11:40:25.903Z,39.18
2022-10-28T11:43:21.746Z,39.36
2022-10-28T11:46:00.361Z,39.06
2022-10-28T11:48:50.620Z,38.91
2022-10-28T11:51:37.809Z,39.01
2022-10-28T11:54:28.100Z,38.83
2022-10-28T11:57:11.813Z,39.03
2022-10-28T12:00:03.958Z,39.06
2022-10-28T12:03:05.359Z,38.85
2022-10-28T12:05:41.867Z,38.91
2022-10-28T12:08:13.504Z,38.81
2022-10-28T12:11:06.419Z,38.87
2022-10-28T12:13:54.272Z,39.15
2022-10-28T12:16:46.028Z,38.89
2022-10-28T12:19:26.340Z,39.19
2022-10-28T12:22:07.265Z,39.14
2022-10-28T12:24:39.093Z,39.22
2022-10-28T12:27:34.435Z,39.33
2022-10-28T12:30:34.121Z,39.59
2022-10-28T12:33:35.775Z,39.62
2022-10-28T12:36:04.407Z,39.80
2022-10-28T12:38:58.830Z,40.19
2022-10-28T12:41:34.255Z,39.87
2022-10-28T12:44:10.152Z,40.24
2022-10-28T12:47:15.287Z,40.16
2022-10-28T12:50:01.132Z,40.25
2022-10-28T12:52:49.362Z,40.60
2022-10-28T12:55:38.641Z,40.90
2022-10-28T12:58:17.989Z,40.96
2022-10-28T13:00:54.951Z,41.35
2022-10-28T13:03:24.063Z,41.32
2022-10-28T13:06:11.624Z,41.32
2022-10-28T13:08:58.800Z,41.37
2022-10-28T13:11:45.637Z,41.69
2022-10-28T13:14:30.649Z,41.76
2022-10-28T13:17:12.184Z,41.59
2022-10-28T13:19:49.840Z,42.04
2022-10-28T13:22:53.594Z,42.33
2022-10-28T13:25:41.749Z,42.36
2022-10-28T13:28:18.877Z,42.13
2022-10-28T13:30:58.260Z,42.24
2022-10-28T13:33:31.472Z,42.85
2022-10-28T13:36:20.084Z,42.74
2022-10-28T13:38:55.603Z,43.10
2022-10-28T13:41:37.380Z,42.83
2022-10-28T13:44:23.132Z,43.17
2022-10-28T13:47:23.662Z,43.61
2022-10-28T13:50:11.351Z,43.68
2022-10-28T13:52:42.265Z,43.71
2022-10-28T13:55:43.154Z,43.68
2022-10-28T13:58:27.305Z,43.48
2022-10-28T14:00:56.502Z,43.61
2022-10-28T14:03:27.612Z,43.83
2022-10-28T14:06:01.215Z,44.26
2022-10-28T14:08:39.177Z,43.95
2022-10-28T14:15:04.118Z,44.21
2022-10-28T14:17:40.504Z,44.31
2022-10-28T14:20:24.342Z,44.46
2022-10-28T14:22:54.834Z,44.80
2022-10-28T14:25:42.102Z,44.72
2022-10-28T14:28:32.158Z,45.07
2022-10-28T14:31:13.131Z,45.56
2022-10-28T14:33:45.001Z,46.14
2022-10-28T14:36:20.069Z,45.79
2022-10-28T14:39:07.282Z,45.98
2022-10-28T14:41:48.608Z,46.19
2022-10-28T14:44:29.345Z,46.02
2022-10-28T14:47:22.579Z,46.12
2022-10-28T14:50:19.299Z,45.80
2022-10-28T14:52:50.399Z,46.07
2022-10-28T14:55:26.679Z,45.96
2022-10-28T14:57:55.730Z,46.14
2022-10-28T15:00:26.776Z,46.32
2022-10-28T15:02:56.293Z,45.94
2022-10-28T15:05:31.213Z,46.18
2022-10-28T15:08:04.375Z,46.03
2022-10-28T15:10:34.767Z,46.54
2022-10-28T15:13:04.883Z,46.51
2022-10-28T15:15:43.135Z,46.13
2022-10-28T15:18:26.367Z,46.26
2022-10-28T15:21:17.242Z,46.79
2022-10-28T15:23:59.239Z,46.70
2022-10-28T15:26:28.580Z,47.16
2022-10-28T15:28:57.617Z,46.51
2022-10-28T15:31:26.685Z,46.12
2022-10-28T15:33:55.897Z,46.85
2022-10-28T15:36:27.289Z,46.66
2022-10-28T15:39:16.604Z,46.81
2022-10-28T15:41:49.913Z,46.66
2022-10-28T15:44:38.713Z,46.88
2022-10-28T15:47:30.419Z,47.44
2022-10-28T15:50:17.748Z,46.87
2022-10-28T15:52:49.183Z,46.93
2022-10-28T15:55:26.658Z,47.17
2022-10-28T15:58:32.631Z,47.00
2022-10-28T16:01:03.299Z,47.36
2022-10-28T16:03:41.552Z,47.10
2022-10-28T16:06:26.840Z,47.14
2022-10-28T16:09:14.937Z,47.35
2022-10-28T16:11:51.270Z,47.43
2022-10-28T16:14:32.943Z,47.47
2022-10-28T16:17:15.319Z,47.13
2022-10-28T16:20:00.890Z,47.45
2022-10-28T16:22:36.583Z,47.43
2022-10-28T16:25:17.484Z,47.55
2022-10-28T16:27:46.485Z,47.45
2022-10-28T16:30:16.312Z,47.35
2022-10-28T16:32:49.790Z,47.27
2022-10-28T16:35:23.150Z,47.31
2022-10-28T16:37:55.810Z,47.51
2022-10-28T16:43:18.416Z,47.87
2022-10-28T16:45:48.727Z,47.50
2022-10-28T16:48:19.644Z,47.48
2022-10-28T16:51:01.515Z,47.45
2022-10-28T16:53:30.539Z,47.84
2022-10-28T16:56:02.360Z,47.70
2022-10-28T16:58:31.748Z,47.66
2022-10-28T17:01:02.054Z,47.76
2022-10-28T17:03:31.088Z,47.91
2022-10-28T17:06:00.062Z,47.74
2022-10-28T17:08:56.507Z,47.75
2022-10-28T17:11:18.149Z,47.92
2022-10-28T17:13:47.161Z,48.03
2022-10-28T17:16:16.221Z,47.83
2022-10-28T17:18:45.554Z,48.28
2022-10-28T17:21:14.530Z,48.24
2022-10-28T17:23:43.525Z,48.32
2022-10-28T17:26:12.452Z,48.25
2022-10-28T17:28:41.321Z,48.53
2022-10-28T17:31:11.480Z,48.30
2022-10-28T17:33:40.485Z,48.30
2022-10-28T17:36:10.015Z,48.74
2022-10-28T17:38:38.882Z,48.56
2022-10-28T17:41:07.798Z,48.45
2022-10-28T17:43:36.668Z,48.89
2022-10-28T17:46:07.275Z,48.63
2022-10-28T17:48:36.281Z,48.88
2022-10-28T17:51:05.271Z,48.60
2022-10-28T17:53:34.623Z,48.81
2022-10-28T17:56:06.112Z,48.78
2022-10-28T17:58:35.135Z,49.15
2022-10-28T18:01:09.670Z,48.74
2022-10-28T18:03:39.316Z,49.30
2022-10-28T18:06:17.564Z,49.03
2022-10-28T18:08:46.659Z,49.25
2022-10-28T18:11:17.420Z,49.49
2022-10-28T18:13:49.619Z,49.35
2022-10-28T18:16:21.267Z,49.39
2022-10-28T18:18:51.431Z,49.14
2022-10-28T18:21:20.788Z,48.92
2022-10-28T18:23:53.865Z,49.46
2022-10-28T18:26:22.815Z,49.32
2022-10-28T18:28:51.774Z,49.27
2022-10-28T18:31:21.167Z,49.49
2022-10-28T18:33:50.827Z,49.38
2022-10-28T18:36:22.816Z,49.68
2022-10-28T18:38:52.518Z,49.64
2022-10-28T18:41:27.397Z,49.75
2022-10-28T18:44:01.551Z,50.12
2022-10-28T18:46:32.639Z,50.17
2022-10-28T18:49:02.170Z,49.91
2022-10-28T18:51:31.285Z,49.98
2022-10-28T18:54:00.496Z,49.63
2022-10-28T18:56:29.975Z,49.81
2022-10-28T18:58:59.553Z,49.84
2022-10-28T19:01:30.266Z,49.84
2022-10-28T19:04:01.530Z,49.79
2022-10-28T19:06:33.282Z,49.79
2022-10-28T19:09:04.394Z,50.12
2022-10-28T19:11:35.104Z,49.79
2022-10-28T19:14:06.568Z,50.12
2022-10-28T19:16:35.912Z,50.37
2022-10-28T19:19:06.054Z,50.56
2022-10-28T19:21:35.460Z,50.25
2022-10-28T19:24:05.889Z,50.02
2022-10-28T19:26:35.509Z,50.53
2022-10-28T19:29:06.047Z,50.49
2022-10-28T19:31:37.700Z,50.40
2022-10-28T19:34:06.787Z,50.76
2022-10-28T19:36:36.126Z,50.72
2022-10-28T19:39:05.338Z,50.79
2022-10-28T19:41:34.416Z,50.69
2022-10-28T19:44:04.421Z,50.73
2022-10-28T19:46:35.826Z,51.00
2022-10-28T19:49:06.722Z,50.92
2022-10-28T19:51:38.424Z,50.72
2022-10-28T19:54:11.149Z,50.58
2022-10-28T19:56:40.475Z,50.87
2022-10-28T19:59:09.466Z,50.66
2022-10-28T20:01:40.819Z,50.69
2022-10-28T20:04:11.016Z,50.66
2022-10-28T20:06:41.598Z,50.70
2022-10-28T20:09:10.558Z,51.21
2022-10-28T20:11:40.688Z,50.83
2022-10-28T20:14:12.939Z,50.62
2022-10-28T20:16:43.310Z,50.68
2022-10-28T20:19:13.196Z,51.34
2022-10-28T20:21:42.072Z,50.81
2022-10-28T20:24:11.072Z,50.93
2022-10-28T20:26:40.145Z,51.02
2022-10-28T20:29:10.389Z,51.39
2022-10-28T20:31:39.541Z,51.37
2022-10-28T20:34:09.105Z,51.39
2022-10-28T20:36:40.517Z,51.20
2022-10-28T20:39:23.538Z,51.08
2022-10-28T20:41:52.675Z,51.36
2022-10-28T20:44:22.182Z,51.05
2022-10-28T20:46:51.588Z,51.13
2022-10-28T20:49:20.500Z,51.40
2022-10-28T20:51:50.332Z,51.83
2022-10-28T20:54:19.647Z,51.25
2022-10-28T20:56:48.513Z,51.40
2022-10-28T20:59:17.515Z,51.33
2022-10-28T21:01:47.442Z,51.78
2022-10-28T21:04:17.059Z,51.49
2022-10-28T21:06:45.933Z,51.84
2022-10-28T21:09:14.879Z,51.61
2022-10-28T21:11:46.079Z,51.68
2022-10-28T21:14:14.954Z,51.64
2022-10-28T21:16:43.896Z,51.59
2022-10-28T21:19:12.938Z,51.97
2022-10-28T21:21:42.014Z,52.22
2022-10-28T21:24:11.021Z,51.94
2022-10-28T21:26:40.056Z,52.03
2022-10-28T21:29:08.959Z,52.34
2022-10-28T21:31:37.897Z,51.87
2022-10-28T21:34:08.416Z,52.38
2022-10-28T21:36:37.743Z,52.07
2022-10-28T21:39:06.813Z,52.00
2022-10-28T21:41:35.820Z,52.35
2022-10-28T21:44:06.902Z,52.45
2022-10-28T21:46:35.860Z,52.38
2022-10-28T21:49:04.831Z,53.03
2022-10-28T21:51:33.741Z,52.65
2022-10-28T21:54:02.660Z,52.63
2022-10-28T21:56:31.568Z,52.67
2022-10-28T21:59:01.668Z,52.70
2022-10-28T22:01:30.930Z,52.57
2022-10-28T22:04:00.169Z,52.86
2022-10-28T22:06:29.194Z,52.44
2022-10-28T22:08:59.885Z,52.48
2022-10-28T22:11:28.756Z,53.11
2022-10-28T22:14:00.585Z,52.99
2022-10-28T22:16:31.757Z,52.93
2022-10-28T22:19:02.257Z,53.00
2022-10-28T22:21:34.096Z,52.79
2022-10-28T22:24:02.961Z,52.87
2022-10-28T22:26:33.236Z,53.07
2022-10-28T22:29:02.297Z,52.44
2022-10-28T22:31:33.000Z,53.30
2022-10-28T22:34:02.429Z,52.75
2022-10-28T22:36:31.894Z,53.26
2022-10-28T22:39:00.604Z,53.10
2022-10-28T22:41:31.483Z,53.55
2022-10-28T22:44:01.744Z,53.03
2022-10-28T22:46:32.615Z,53.35
2022-10-28T22:49:01.499Z,53.41
2022-10-28T22:51:30.505Z,52.91
2022-10-28T22:53:59.468Z,53.69
2022-10-28T22:56:28.473Z,53.59
2022-10-28T22:58:59.763Z,53.53
2022-10-28T23:01:30.773Z,53.50
2022-10-28T23:04:01.552Z,53.71
2022-10-28T23:06:30.897Z,53.29
2022-10-28T23:08:59.757Z,53.71
2022-10-28T23:11:28.769Z,53.25
2022-10-28T23:13:57.502Z,53.99
2022-10-28T23:16:26.244Z,53.48
2022-10-28T23:18:55.153Z,53.81
2022-10-28T23:21:25.875Z,53.88
2022-10-28T23:23:59.523Z,54.06
2022-10-28T23:26:30.196Z,54.23
2022-10-28T23:29:00.653Z,53.57
2022-10-28T23:31:29.763Z,53.91
2022-10-28T23:33:59.765Z,53.89
2022-10-28T23:36:28.478Z,54.25
2022-10-28T23:38:58.120Z,54.42
2022-10-28T23:41:26.990Z,54.55
2022-10-28T23:43:55.825Z,54.61
2022-10-28T23:46:25.591Z,54.40
2022-10-28T23:48:54.486Z,54.33
2022-10-28T23:51:23.312Z,54.85
2022-10-28T23:53:52.160Z,54.41
2022-10-28T23:56:20.987Z,54.49
2022-10-28T23:58:49.786Z,54.65
